createdAt,value
2022-11-16T00:01:20.698Z,99564.91
2022-11-16T00:03:46.267Z,99562.97
2022-11-16T00:06:12.474Z,99557.44
2022-11-16T00:08:40.280Z,99551.91
2022-11-16T00:11:08.247Z,99544.75
2022-11-16T00:13:34.033Z,99548.34
2022-11-16T00:15:59.645Z,99540.03
2022-11-16T00:18:25.231Z,99541.19
2022-11-16T00:20:50.847Z,99536.47
2022-11-16T00:23:16.963Z,99532.03
2022-11-16T00:25:42.555Z,99530.94
2022-11-16T00:28:08.097Z,99536.47
2022-11-16T00:30:33.638Z,99532.88
2022-11-16T00:32:59.704Z,99535.66
2022-11-16T00:35:25.242Z,99533.19
2022-11-16T00:37:50.856Z,99532.03
2022-11-16T00:40:16.392Z,99532.03
2022-11-16T00:42:41.944Z,99530.94
2022-11-16T00:45:07.802Z,99530.13
2022-11-16T00:47:33.370Z,99529.28
2022-11-16T00:49:58.923Z,99522.94
2022-11-16T00:52:24.465Z,99534.00
2022-11-16T00:54:50.019Z,99534.81
2022-11-16T00:57:15.568Z,99526.84
2022-11-16T00:59:41.132Z,99520.19
2022-11-16T01:02:06.691Z,99525.72
2022-11-16T01:04:32.391Z,99524.91
2022-11-16T01:06:58.047Z,99525.72
2022-11-16T01:09:23.636Z,99522.13
2022-11-16T01:12:09.081Z,99519.38
2022-11-16T01:14:35.557Z,99520.19
2022-11-16T01:17:01.099Z,99513.84
2022-11-16T01:19:26.931Z,99517.75
2022-11-16T01:21:52.475Z,99523.28
2022-11-16T01:24:18.029Z,99520.50
2022-11-16T01:26:43.575Z,99523.28
2022-11-16T01:29:09.126Z,99523.28
2022-11-16T01:31:34.663Z,99534.34
2022-11-16T01:34:00.210Z,99526.03
2022-11-16T01:36:25.748Z,99526.03
2022-11-16T01:38:51.299Z,99528.00
2022-11-16T01:41:18.288Z,99528.00
2022-11-16T01:44:03.728Z,99528.81
2022-11-16T01:46:29.627Z,99526.38
2022-11-16T01:49:00.231Z,99516.13
2022-11-16T01:51:25.779Z,99521.66
2022-11-16T01:53:51.354Z,99515.31
2022-11-16T01:56:16.891Z,99505.06
2022-11-16T01:58:42.447Z,99496.78
2022-11-16T02:01:08.031Z,99496.78
2022-11-16T02:03:33.856Z,99492.06
2022-11-16T02:09:01.451Z,99495.97
2022-11-16T02:11:32.779Z,99499.53
2022-11-16T02:14:02.595Z,99500.66
2022-11-16T02:19:39.080Z,99507.84
2022-11-16T02:22:24.497Z,99501.50
2022-11-16T02:24:56.095Z,99497.91
2022-11-16T02:27:33.140Z,99502.63
2022-11-16T02:29:58.698Z,99494.31
2022-11-16T02:32:34.210Z,99489.59
2022-11-16T02:35:02.921Z,99480.50
2022-11-16T02:37:29.669Z,99466.69
2022-11-16T02:39:55.815Z,99477.75
2022-11-16T02:42:22.324Z,99479.69
2022-11-16T02:44:48.754Z,99476.94
2022-11-16T02:47:17.365Z,99475.78
2022-11-16T02:49:44.184Z,99474.97
2022-11-16T02:52:09.720Z,99476.13
2022-11-16T02:54:35.288Z,99470.59
2022-11-16T02:57:04.496Z,99459.53
2022-11-16T02:59:35.848Z,99468.63
2022-11-16T03:02:03.213Z,99462.31
2022-11-16T03:04:32.155Z,99457.59
2022-11-16T03:06:57.857Z,99456.78
2022-11-16T03:09:25.857Z,99453.19
2022-11-16T03:11:59.619Z,99453.19
2022-11-16T03:14:33.656Z,99457.91
2022-11-16T03:16:59.930Z,99461.50
2022-11-16T03:19:28.226Z,99457.91
2022-11-16T03:21:58.248Z,99460.69
2022-11-16T03:24:23.801Z,99467.81
2022-11-16T03:26:52.705Z,99472.53
2022-11-16T03:29:26.328Z,99468.97
2022-11-16T03:31:52.415Z,99480.03
2022-11-16T03:34:18.531Z,99485.56
2022-11-16T03:36:45.233Z,99490.28
2022-11-16T03:39:11.907Z,99491.88
2022-11-16T03:41:38.451Z,99496.59
2022-11-16T03:44:04.133Z,99491.06
2022-11-16T03:46:29.680Z,99496.59
2022-11-16T03:48:56.560Z,99497.75
2022-11-16T03:51:22.107Z,99504.91
2022-11-16T03:53:47.653Z,99505.22
2022-11-16T03:56:13.774Z,99500.50
2022-11-16T03:58:39.337Z,99501.31
2022-11-16T04:01:05.138Z,99500.50
2022-11-16T04:03:30.841Z,99505.22
2022-11-16T04:06:16.395Z,99506.84
2022-11-16T04:09:01.891Z,99517.09
2022-11-16T04:11:47.404Z,99508.00
2022-11-16T04:14:33.519Z,99517.09
2022-11-16T04:17:18.973Z,99511.56
2022-11-16T04:20:04.419Z,99521.81
2022-11-16T04:22:52.388Z,99529.25
2022-11-16T04:25:19.416Z,99527.34
2022-11-16T04:28:04.868Z,99526.50
2022-11-16T04:30:50.342Z,99519.03
2022-11-16T04:33:35.790Z,99520.97
2022-11-16T04:36:21.232Z,99529.25
2022-11-16T04:38:46.780Z,99533.97
2022-11-16T04:41:32.271Z,99521.81
2022-11-16T04:43:57.826Z,99516.28
2022-11-16T04:46:43.273Z,99520.16
2022-11-16T04:49:09.001Z,99524.56
2022-11-16T04:51:34.545Z,99520.16
2022-11-16T04:54:00.105Z,99533.16
2022-11-16T04:56:25.642Z,99530.41
2022-11-16T04:58:51.190Z,99532.03
2022-11-16T05:01:16.785Z,99533.16
2022-11-16T05:03:42.410Z,99537.53
2022-11-16T05:06:07.959Z,99534.78
2022-11-16T05:08:33.801Z,99536.75
2022-11-16T05:10:59.541Z,99537.88
2022-11-16T05:13:25.086Z,99541.44
2022-11-16T05:15:50.678Z,99537.88
2022-11-16T05:18:16.219Z,99535.94
2022-11-16T05:21:01.687Z,99545.34
2022-11-16T05:23:47.124Z,99546.97
2022-11-16T05:26:12.683Z,99548.13
2022-11-16T05:28:38.252Z,99548.94
2022-11-16T05:31:03.834Z,99551.69
2022-11-16T05:33:29.408Z,99552.50
2022-11-16T05:35:54.960Z,99557.22
2022-11-16T05:38:20.514Z,99560.78
2022-11-16T05:40:46.179Z,99565.50
2022-11-16T05:43:11.727Z,99553.66
2022-11-16T05:45:37.283Z,99559.19
2022-11-16T05:48:02.828Z,99562.28
2022-11-16T05:50:28.395Z,99561.94
2022-11-16T05:52:53.934Z,99560.31
2022-11-16T05:55:19.506Z,99561.94
2022-11-16T05:57:45.054Z,99559.19
2022-11-16T06:00:10.871Z,99567.47
2022-11-16T06:02:36.452Z,99575.75
2022-11-16T06:05:02.058Z,99566.66
2022-11-16T06:07:28.088Z,99573.81
2022-11-16T06:09:53.691Z,99571.38
2022-11-16T06:12:19.233Z,99567.78
2022-11-16T06:14:45.005Z,99583.25
2022-11-16T06:17:13.628Z,99582.41
2022-11-16T06:19:39.498Z,99578.84
2022-11-16T06:22:05.283Z,99585.19
2022-11-16T06:24:30.874Z,99586.00
2022-11-16T06:26:56.438Z,99587.13
2022-11-16T06:29:22.030Z,99592.66
2022-11-16T06:31:47.572Z,99598.19
2022-11-16T06:34:13.133Z,99596.25
2022-11-16T06:36:38.690Z,99610.06
2022-11-16T06:39:04.239Z,99608.41
2022-11-16T06:41:29.810Z,99614.78
2022-11-16T06:43:55.359Z,99623.88
2022-11-16T06:46:21.070Z,99621.09
2022-11-16T06:48:46.648Z,99619.47
2022-11-16T06:51:12.217Z,99630.50
2022-11-16T06:53:37.761Z,99631.34
2022-11-16T06:56:03.725Z,99639.66
2022-11-16T06:58:30.598Z,99632.16
2022-11-16T07:00:56.591Z,99637.69
2022-11-16T07:03:22.136Z,99633.28
2022-11-16T07:05:47.685Z,99640.75
2022-11-16T07:08:13.226Z,99638.81
2022-11-16T07:10:38.945Z,99644.31
2022-11-16T07:13:04.517Z,99643.50
2022-11-16T07:15:30.281Z,99646.28
2022-11-16T07:17:55.832Z,99647.09
2022-11-16T07:20:22.048Z,99654.56
2022-11-16T07:22:47.587Z,99651.81
2022-11-16T07:25:13.142Z,99660.09
2022-11-16T07:27:38.734Z,99671.16
2022-11-16T07:30:04.896Z,99677.50
2022-11-16T07:32:30.448Z,99678.63
2022-11-16T07:34:59.047Z,99675.88
2022-11-16T07:37:25.071Z,99681.38
2022-11-16T07:39:50.655Z,99683.34
2022-11-16T07:42:16.205Z,99686.09
2022-11-16T07:44:41.756Z,99690.81
2022-11-16T07:47:07.331Z,99699.09
2022-11-16T07:49:32.890Z,99691.63
2022-11-16T07:51:58.494Z,99686.91
2022-11-16T07:54:24.061Z,99697.16
2022-11-16T08:00:11.572Z,99697.16
2022-11-16T08:02:37.123Z,99694.41
2022-11-16T08:05:02.723Z,99703.81
2022-11-16T08:07:28.325Z,99707.41
2022-11-16T08:09:53.941Z,99701.53
2022-11-16T08:12:19.559Z,99705.44
2022-11-16T08:14:45.140Z,99710.16
2022-11-16T08:17:10.692Z,99711.78
2022-11-16T08:19:36.246Z,99720.06
2022-11-16T08:22:02.655Z,99723.78
2022-11-16T08:24:28.228Z,99725.50
2022-11-16T08:26:53.810Z,99728.81
2022-11-16T08:29:19.362Z,99729.03
2022-11-16T08:31:45.148Z,99732.28
2022-11-16T08:34:10.726Z,99741.38
2022-11-16T08:36:36.267Z,99736.66
2022-11-16T08:39:01.829Z,99738.28
2022-11-16T08:41:27.419Z,99732.75
2022-11-16T08:43:53.446Z,99745.75
2022-11-16T08:46:19.256Z,99743.00
2022-11-16T08:48:45.390Z,99744.66
2022-11-16T08:51:20.116Z,99751.00
2022-11-16T08:53:47.256Z,99753.75
2022-11-16T08:56:12.905Z,99747.78
2022-11-16T08:58:38.875Z,99751.34
2022-11-16T09:01:13.074Z,99750.53
2022-11-16T09:03:38.895Z,99760.78
2022-11-16T09:06:04.902Z,99763.22
2022-11-16T09:08:30.860Z,99767.94
2022-11-16T09:10:56.498Z,99768.25
2022-11-16T09:13:22.070Z,99769.06
2022-11-16T09:15:47.622Z,99769.06
2022-11-16T09:18:13.176Z,99771.03
2022-11-16T09:20:42.724Z,99769.88
2022-11-16T09:23:08.266Z,99769.06
2022-11-16T09:25:33.831Z,99773.47
2022-11-16T09:27:59.393Z,99778.16
2022-11-16T09:30:25.035Z,99785.66
2022-11-16T09:32:50.612Z,99779.78
2022-11-16T09:35:16.623Z,99777.03
2022-11-16T09:37:42.173Z,99770.69
2022-11-16T09:40:08.015Z,99778.16
2022-11-16T09:42:53.458Z,99775.13
2022-11-16T09:45:23.173Z,99777.03
2022-11-16T09:47:49.351Z,99775.13
2022-11-16T09:50:31.518Z,99773.97
2022-11-16T09:52:58.831Z,99777.00
2022-11-16T09:55:32.927Z,99775.84
2022-11-16T09:57:59.042Z,99772.91
2022-11-16T10:00:24.802Z,99776.06
2022-11-16T10:02:56.154Z,99771.03
2022-11-16T10:05:23.506Z,99773.47
2022-11-16T10:07:51.366Z,99771.22
2022-11-16T10:10:17.981Z,99776.75
2022-11-16T10:12:45.483Z,99780.31
2022-11-16T10:15:30.912Z,99784.72
2022-11-16T10:17:59.374Z,99776.41
2022-11-16T10:20:44.811Z,99773.66
2022-11-16T10:23:13.704Z,99778.03
2022-11-16T10:25:47.946Z,99775.28
2022-11-16T10:28:33.367Z,99781.66
2022-11-16T10:31:00.220Z,99774.16
2022-11-16T10:33:25.775Z,99774.16
2022-11-16T10:35:53.260Z,99766.97
2022-11-16T10:38:21.212Z,99763.09
2022-11-16T10:40:49.231Z,99761.44
2022-11-16T10:43:15.738Z,99757.59
2022-11-16T10:45:44.409Z,99754.00
2022-11-16T10:48:22.099Z,99758.41
2022-11-16T10:50:48.367Z,99751.72
2022-11-16T10:53:14.548Z,99751.25
2022-11-16T10:55:40.155Z,99751.25
2022-11-16T10:58:05.730Z,99750.91
2022-11-16T11:00:40.910Z,99751.72
2022-11-16T11:03:06.615Z,99748.63
2022-11-16T11:05:33.398Z,99737.91
2022-11-16T11:08:03.559Z,99742.28
2022-11-16T11:10:31.106Z,99744.25
2022-11-16T11:13:00.485Z,99741.47
2022-11-16T11:15:27.211Z,99734.00
2022-11-16T11:18:12.882Z,99727.34
2022-11-16T11:20:44.885Z,99730.94
2022-11-16T11:23:25.902Z,99721.31
2022-11-16T11:25:53.470Z,99722.94
2022-11-16T11:28:23.761Z,99721.00
2022-11-16T11:30:59.215Z,99720.19
2022-11-16T11:33:26.659Z,99715.78
2022-11-16T11:35:56.118Z,99709.13
2022-11-16T11:38:21.935Z,99702.78
2022-11-16T11:41:04.304Z,99698.88
2022-11-16T11:43:30.048Z,99689.16
2022-11-16T11:46:15.526Z,99693.88
2022-11-16T11:48:47.067Z,99686.38
2022-11-16T11:51:32.698Z,99689.16
2022-11-16T11:53:58.805Z,99678.28
2022-11-16T11:56:24.701Z,99678.75
2022-11-16T11:58:50.939Z,99682.34
2022-11-16T12:01:36.818Z,99680.72
2022-11-16T12:04:22.323Z,99681.00
2022-11-16T12:07:07.798Z,99678.41
2022-11-16T12:09:36.859Z,99671.13
2022-11-16T12:12:09.276Z,99666.91
2022-11-16T12:14:58.849Z,99659.66
2022-11-16T12:17:44.277Z,99653.56
2022-11-16T12:20:25.150Z,99657.56
2022-11-16T12:23:04.134Z,99655.47
2022-11-16T12:25:40.939Z,99647.69
2022-11-16T12:28:26.376Z,99645.75
2022-11-16T12:30:58.561Z,99647.06
2022-11-16T12:33:44.007Z,99648.84
2022-11-16T12:36:18.811Z,99644.34
2022-11-16T12:39:04.303Z,99641.88
2022-11-16T12:41:36.496Z,99643.63
2022-11-16T12:44:02.655Z,99638.44
2022-11-16T12:46:33.000Z,99634.53
2022-11-16T12:51:50.324Z,99648.34
2022-11-16T12:54:35.759Z,99644.28
2022-11-16T12:57:04.131Z,99633.25
2022-11-16T12:59:33.354Z,99636.47
2022-11-16T13:02:18.796Z,99625.75
2022-11-16T13:04:45.173Z,99626.25
2022-11-16T13:07:13.607Z,99623.00
2022-11-16T13:09:39.954Z,99622.66
2022-11-16T13:12:06.053Z,99623.47
2022-11-16T13:14:33.517Z,99621.22
2022-11-16T13:16:59.619Z,99610.63
2022-11-16T13:19:25.177Z,99613.22
2022-11-16T13:22:06.973Z,99612.13
2022-11-16T13:24:52.422Z,99606.25
2022-11-16T13:27:23.252Z,99609.50
2022-11-16T13:30:08.693Z,99590.66
2022-11-16T13:32:44.224Z,99592.28
2022-11-16T13:35:13.019Z,99592.28
2022-11-16T13:37:41.289Z,99580.41
2022-11-16T13:42:43.123Z,99576.50
2022-11-16T13:45:23.669Z,99584.81
2022-11-16T13:47:50.691Z,99573.75
2022-11-16T13:50:17.174Z,99575.69
2022-11-16T13:53:28.444Z,99559.91
2022-11-16T13:55:38.109Z,99561.56
2022-11-16T13:58:03.786Z,99567.91
2022-11-16T14:00:31.069Z,99562.38
2022-11-16T14:03:16.533Z,99559.63
2022-11-16T14:05:44.285Z,99563.19
2022-11-16T14:08:27.755Z,99559.63
2022-11-16T14:13:36.872Z,99570.34
2022-11-16T14:16:22.817Z,99562.84
2022-11-16T14:18:50.345Z,99565.63
2022-11-16T14:21:21.076Z,99551.81
2022-11-16T14:24:06.583Z,99568.38
2022-11-16T14:26:40.212Z,99560.91
2022-11-16T14:29:09.945Z,99558.94
2022-11-16T14:31:56.141Z,99560.91
2022-11-16T14:34:23.219Z,99560.91
2022-11-16T14:36:48.808Z,99563.66
2022-11-16T14:39:36.413Z,99557.31
2022-11-16T14:42:03.213Z,99555.38
2022-11-16T14:44:29.971Z,99551.81
2022-11-16T14:46:55.870Z,99544.31
2022-11-16T14:49:21.613Z,99545.47
2022-11-16T14:51:48.392Z,99543.50
2022-11-16T14:54:15.394Z,99543.50
2022-11-16T14:56:57.022Z,99535.22
2022-11-16T14:59:22.742Z,99537.16
2022-11-16T15:01:48.298Z,99535.22
2022-11-16T15:04:14.769Z,99539.13
2022-11-16T15:06:41.565Z,99534.41
2022-11-16T15:09:09.198Z,99532.44
2022-11-16T15:11:55.978Z,99531.63
2022-11-16T15:14:24.046Z,99541.88
2022-11-16T15:16:51.194Z,99530.81
2022-11-16T15:19:16.791Z,99524.47
2022-11-16T15:21:50.377Z,99527.25
2022-11-16T15:24:32.479Z,99518.94
2022-11-16T15:27:01.745Z,99521.72
2022-11-16T15:29:27.283Z,99523.66
2022-11-16T15:31:52.839Z,99521.72
2022-11-16T15:34:18.486Z,99517.34
2022-11-16T15:36:44.081Z,99520.09
2022-11-16T15:39:26.713Z,99509.84
2022-11-16T15:41:52.269Z,99502.66
2022-11-16T15:44:18.789Z,99504.31
2022-11-16T15:46:45.086Z,99508.19
2022-11-16T15:49:15.113Z,99501.03
2022-11-16T15:51:42.146Z,99492.75
2022-11-16T15:54:20.873Z,99495.50
2022-11-16T15:56:46.427Z,99478.94
2022-11-16T15:59:12.829Z,99487.22
2022-11-16T16:01:40.125Z,99493.56
2022-11-16T16:04:06.258Z,99488.03
2022-11-16T16:06:51.779Z,99479.75
2022-11-16T16:09:22.109Z,99473.72
2022-11-16T16:11:47.665Z,99478.13
2022-11-16T16:14:21.067Z,99473.41
2022-11-16T16:16:48.841Z,99474.53
2022-11-16T16:19:31.077Z,99483.66
2022-11-16T16:21:58.500Z,99483.66
2022-11-16T16:24:40.581Z,99478.13
2022-11-16T16:27:14.453Z,99464.28
2022-11-16T16:29:40.001Z,99471.78
2022-11-16T16:32:07.433Z,99464.28
2022-11-16T16:34:36.474Z,99468.19
2022-11-16T16:37:03.374Z,99463.47
2022-11-16T16:39:31.118Z,99452.75
2022-11-16T16:41:56.673Z,99453.56
2022-11-16T16:44:22.233Z,99451.91
2022-11-16T16:46:47.787Z,99449.16
2022-11-16T16:49:13.329Z,99451.91
2022-11-16T16:51:38.876Z,99453.06
2022-11-16T16:54:04.427Z,99450.31
2022-11-16T16:56:29.990Z,99445.09
2022-11-16T16:58:55.532Z,99436.81
2022-11-16T17:01:21.101Z,99446.72
2022-11-16T17:03:47.163Z,99440.38
2022-11-16T17:06:13.190Z,99436.47
2022-11-16T17:08:38.739Z,99440.06
2022-11-16T17:11:04.283Z,99434.84
2022-11-16T17:13:29.831Z,99430.13
2022-11-16T17:15:55.370Z,99435.66
2022-11-16T17:18:21.195Z,99430.13
2022-11-16T17:20:46.733Z,99425.75
2022-11-16T17:23:12.281Z,99432.91
2022-11-16T17:25:37.825Z,99424.59
2022-11-16T17:28:03.383Z,99420.69
2022-11-16T17:30:28.926Z,99418.28
2022-11-16T17:32:54.497Z,99422.19
2022-11-16T17:35:20.036Z,99415.50
2022-11-16T17:37:45.824Z,99412.75
2022-11-16T17:40:11.648Z,99419.41
2022-11-16T17:42:37.196Z,99423.00
2022-11-16T17:45:02.806Z,99409.16
2022-11-16T17:47:30.221Z,99411.94
2022-11-16T17:49:55.762Z,99397.31
2022-11-16T17:52:21.314Z,99400.06
2022-11-16T17:54:46.871Z,99394.53
2022-11-16T17:57:12.543Z,99390.97
2022-11-16T17:59:38.087Z,99393.72
2022-11-16T18:02:03.628Z,99386.25
2022-11-16T18:04:29.185Z,99383.47
2022-11-16T18:06:55.175Z,99382.97
2022-11-16T18:09:20.746Z,99376.31
2022-11-16T18:11:46.332Z,99372.72
2022-11-16T18:14:11.890Z,99369.97
2022-11-16T18:16:40.176Z,99382.66
2022-11-16T18:19:05.750Z,99384.59
2022-11-16T18:21:32.917Z,99380.22
2022-11-16T18:23:58.698Z,99381.81
2022-11-16T18:26:24.261Z,99380.22
2022-11-16T18:28:50.345Z,99376.31
2022-11-16T18:31:17.278Z,99369.16
2022-11-16T18:33:43.049Z,99374.69
2022-11-16T18:36:09.042Z,99368.34
2022-11-16T18:38:35.469Z,99376.63
2022-11-16T18:43:49.431Z,99385.75
2022-11-16T18:46:15.298Z,99379.41
2022-11-16T18:48:42.021Z,99368.34
2022-11-16T18:51:08.307Z,99380.22
2022-11-16T18:53:34.149Z,99375.81
2022-11-16T18:56:00.001Z,99376.97
2022-11-16T19:01:13.401Z,99371.44
2022-11-16T19:03:39.012Z,99366.38
2022-11-16T19:06:08.207Z,99363.16
2022-11-16T19:08:34.052Z,99357.63
2022-11-16T19:11:07.705Z,99358.78
2022-11-16T19:13:33.941Z,99358.78
2022-11-16T19:15:59.647Z,99359.56
2022-11-16T19:18:25.517Z,99362.34
2022-11-16T19:20:51.983Z,99356.81
2022-11-16T19:23:17.523Z,99353.25
2022-11-16T19:25:43.124Z,99340.22
2022-11-16T19:28:08.670Z,99331.13
2022-11-16T19:30:34.285Z,99341.34
2022-11-16T19:33:00.592Z,99335.81
2022-11-16T19:35:26.147Z,99338.59
2022-11-16T19:37:51.706Z,99333.06
2022-11-16T19:40:22.207Z,99335.81
2022-11-16T19:42:51.501Z,99331.44
2022-11-16T19:45:17.045Z,99324.75
2022-11-16T19:47:42.600Z,99325.91
2022-11-16T19:50:09.692Z,99314.03
2022-11-16T19:52:35.368Z,99301.84
2022-11-16T19:55:00.915Z,99299.06
2022-11-16T19:57:26.482Z,99304.59
2022-11-16T19:59:52.021Z,99301.03
2022-11-16T20:02:17.571Z,99295.50
2022-11-16T20:04:43.111Z,99282.81
2022-11-16T20:07:10.079Z,99280.06
2022-11-16T20:09:35.660Z,99269.00
2022-11-16T20:12:01.234Z,99268.19
2022-11-16T20:14:26.792Z,99263.47
2022-11-16T20:16:52.404Z,99257.16
2022-11-16T20:19:19.664Z,99256.34
2022-11-16T20:21:45.214Z,99244.94
2022-11-16T20:24:11.714Z,99246.09
2022-11-16T20:26:40.023Z,99242.97
2022-11-16T20:29:05.568Z,99235.03
2022-11-16T20:31:31.686Z,99230.31
2022-11-16T20:33:57.847Z,99230.66
2022-11-16T20:36:23.968Z,99228.69
2022-11-16T20:38:49.508Z,99228.69
2022-11-16T20:41:16.235Z,99222.38
2022-11-16T20:43:42.119Z,99223.16
2022-11-16T20:46:08.419Z,99224.28
2022-11-16T20:48:34.100Z,99218.75
2022-11-16T20:50:59.640Z,99217.63
2022-11-16T20:53:25.862Z,99211.31
2022-11-16T20:55:51.471Z,99204.94
2022-11-16T20:58:22.418Z,99207.69
2022-11-16T21:00:48.510Z,99202.50
2022-11-16T21:03:14.050Z,99203.31
2022-11-16T21:05:40.414Z,99193.88
2022-11-16T21:08:05.958Z,99189.50
2022-11-16T21:10:34.576Z,99186.75
2022-11-16T21:13:20.019Z,99188.69
2022-11-16T21:15:53.439Z,99178.44
2022-11-16T21:18:18.984Z,99169.34
2022-11-16T21:20:44.535Z,99155.53
2022-11-16T21:23:10.075Z,99159.09
2022-11-16T21:25:35.628Z,99161.88
2022-11-16T21:28:01.169Z,99144.47
2022-11-16T21:30:26.721Z,99143.66
2022-11-16T21:32:52.268Z,99136.19
2022-11-16T21:35:17.813Z,99136.19
2022-11-16T21:37:43.381Z,99131.47
2022-11-16T21:40:09.480Z,99116.84
2022-11-16T21:42:35.039Z,99127.09
2022-11-16T21:45:00.575Z,99119.59
2022-11-16T21:47:26.127Z,99106.94
2022-11-16T21:50:16.832Z,99106.13
2022-11-16T21:52:37.184Z,99102.22
2022-11-16T21:55:02.750Z,99093.13
2022-11-16T21:57:28.296Z,99091.16
2022-11-16T21:59:53.843Z,99095.88
2022-11-16T22:02:19.403Z,99088.41
2022-11-16T22:05:04.861Z,99076.53
2022-11-16T22:07:33.673Z,99079.28
2022-11-16T22:10:00.527Z,99070.19
2022-11-16T22:12:26.395Z,99065.47
2022-11-16T22:14:51.939Z,99056.69
2022-11-16T22:17:17.497Z,99056.38
2022-11-16T22:19:43.043Z,99053.63
2022-11-16T22:22:08.602Z,99047.28
2022-11-16T22:24:34.239Z,99043.72
2022-11-16T22:26:59.869Z,99044.53
2022-11-16T22:29:25.410Z,99044.53
2022-11-16T22:31:50.964Z,99031.50
2022-11-16T22:34:16.505Z,99031.50
2022-11-16T22:36:42.067Z,99018.84
2022-11-16T22:39:07.609Z,99016.88
2022-11-16T22:41:33.160Z,99005.03
2022-11-16T22:43:58.704Z,98997.53
2022-11-16T22:46:24.258Z,98985.69
2022-11-16T22:48:49.802Z,98986.81
2022-11-16T22:51:19.397Z,98985.69
2022-11-16T22:53:44.941Z,98969.09
2022-11-16T22:56:10.640Z,98970.22
2022-11-16T22:58:36.520Z,98966.34
2022-11-16T23:01:02.354Z,98953.63
2022-11-16T23:03:28.057Z,98953.63
2022-11-16T23:05:53.681Z,98948.91
2022-11-16T23:08:23.913Z,98946.16
2022-11-16T23:11:17.182Z,98942.59
2022-11-16T23:14:02.849Z,98930.72
2022-11-16T23:16:28.412Z,98920.47
2022-11-16T23:18:54.087Z,98921.28
2022-11-16T23:21:39.791Z,98910.56
2022-11-16T23:24:28.288Z,98908.63
2022-11-16T23:27:14.128Z,98900.31
2022-11-16T23:29:39.990Z,98903.91
2022-11-16T23:32:05.542Z,98882.94
2022-11-16T23:34:31.085Z,98875.47
2022-11-16T23:37:04.198Z,98879.03
2022-11-16T23:39:29.838Z,98869.94
2022-11-16T23:42:15.305Z,98851.75
2022-11-16T23:44:40.919Z,98835.97
2022-11-16T23:47:06.473Z,98826.88
2022-11-16T23:49:32.018Z,98813.06
2022-11-16T23:51:57.572Z,98799.25
2022-11-16T23:54:23.117Z,98798.44
2022-11-16T23:56:48.670Z,98790.94
2022-11-16T23:59:14.218Z,98770.81
